createdAt,value
2017-07-24T00:01:59.336Z,53.83
2017-07-24T00:04:27.084Z,54.10
2017-07-24T00:06:54.964Z,53.64
2017-07-24T00:09:22.649Z,54.13
2017-07-24T00:11:50.279Z,54.01
2017-07-24T00:14:18.069Z,53.81
2017-07-24T00:16:45.658Z,54.05
2017-07-24T00:19:13.307Z,54.54
2017-07-24T00:21:40.913Z,54.42
2017-07-24T00:24:08.499Z,54.46
2017-07-24T00:26:36.120Z,54.48
2017-07-24T00:29:03.737Z,54.16
2017-07-24T00:31:31.352Z,54.69
2017-07-24T00:33:58.988Z,55.29
2017-07-24T00:36:26.541Z,55.48
2017-07-24T00:38:54.364Z,55.74
2017-07-24T00:41:22.161Z,55.43
2017-07-24T00:43:49.725Z,55.43
2017-07-24T00:46:17.358Z,55.75
2017-07-24T00:48:44.949Z,55.81
2017-07-24T00:51:12.494Z,55.69
2017-07-24T00:53:40.315Z,55.82
2017-07-24T00:56:08.115Z,55.94
2017-07-24T00:58:35.886Z,55.81
2017-07-24T01:01:03.481Z,55.44
2017-07-24T01:03:31.118Z,55.53
2017-07-24T01:05:59.790Z,55.62
2017-07-24T01:08:27.403Z,55.25
2017-07-24T01:10:55.172Z,55.33
2017-07-24T01:13:22.758Z,55.64
2017-07-24T01:15:50.371Z,55.63
2017-07-24T01:18:18.028Z,55.16
2017-07-24T01:20:45.674Z,54.55
2017-07-24T01:23:13.302Z,54.21
2017-07-24T01:25:40.915Z,55.61
2017-07-24T01:28:08.576Z,55.13
2017-07-24T01:30:36.602Z,55.87
2017-07-24T01:33:04.205Z,54.95
2017-07-24T01:35:32.533Z,54.14
2017-07-24T01:38:00.140Z,53.69
2017-07-24T01:40:27.698Z,53.44
2017-07-24T01:42:55.281Z,53.38
2017-07-24T01:45:22.878Z,53.05
2017-07-24T01:47:50.432Z,53.89
2017-07-24T01:50:18.087Z,53.39
2017-07-24T01:52:47.284Z,53.33
2017-07-24T01:55:14.887Z,53.59
2017-07-24T01:57:42.479Z,53.77
2017-07-24T02:00:10.205Z,53.94
2017-07-24T02:02:37.887Z,53.91
2017-07-24T02:05:05.502Z,53.92
2017-07-24T02:07:33.109Z,53.95
2017-07-24T02:10:00.737Z,53.30
2017-07-24T02:12:28.293Z,53.57
2017-07-24T02:14:55.926Z,53.66
2017-07-24T02:17:23.590Z,53.88
2017-07-24T02:19:51.175Z,54.38
2017-07-24T02:22:18.853Z,54.69
2017-07-24T02:24:46.450Z,55.09
2017-07-24T02:27:14.037Z,55.36
2017-07-24T02:29:41.652Z,55.55
2017-07-24T02:32:09.251Z,55.72
2017-07-24T02:34:36.868Z,56.07
2017-07-24T02:37:04.450Z,56.31
2017-07-24T02:39:33.025Z,56.54
2017-07-24T02:42:00.696Z,57.05
2017-07-24T02:44:28.274Z,57.05
2017-07-24T02:46:55.876Z,57.16
2017-07-24T02:49:23.469Z,57.19
2017-07-24T02:51:51.018Z,57.31
2017-07-24T02:54:18.611Z,56.78
2017-07-24T02:56:47.234Z,56.87
2017-07-24T02:59:14.857Z,56.83
2017-07-24T03:01:42.434Z,57.10
2017-07-24T03:04:10.097Z,57.63
2017-07-24T03:06:37.798Z,57.97
2017-07-24T03:09:05.476Z,58.79
2017-07-24T03:11:33.533Z,59.04
2017-07-24T03:14:01.141Z,58.65
2017-07-24T03:16:28.749Z,58.36
2017-07-24T03:18:57.195Z,58.52
2017-07-24T03:21:24.758Z,58.10
2017-07-24T03:23:52.383Z,58.16
2017-07-24T03:26:19.946Z,57.95
2017-07-24T03:28:48.380Z,57.88
2017-07-24T03:31:15.990Z,57.66
2017-07-24T03:33:43.612Z,57.57
2017-07-24T03:36:11.385Z,57.55
2017-07-24T03:38:39.029Z,57.31
2017-07-24T03:41:06.622Z,55.96
2017-07-24T03:43:34.400Z,56.37
2017-07-24T03:46:02.119Z,55.44
2017-07-24T03:48:29.961Z,55.95
2017-07-24T03:50:57.549Z,56.10
2017-07-24T03:53:25.171Z,56.01
2017-07-24T03:55:52.772Z,56.28
2017-07-24T03:58:20.583Z,56.66
2017-07-24T04:00:48.228Z,56.70
2017-07-24T04:03:15.812Z,56.92
2017-07-24T04:05:43.416Z,56.94
2017-07-24T04:08:13.437Z,57.10
2017-07-24T04:10:41.453Z,57.98
2017-07-24T04:13:09.099Z,58.44
2017-07-24T04:15:37.698Z,58.43
2017-07-24T04:18:05.376Z,58.45
2017-07-24T04:20:32.977Z,57.98
2017-07-24T04:23:00.594Z,58.08
2017-07-24T04:25:28.819Z,58.19
2017-07-24T04:27:56.419Z,56.72
2017-07-24T04:30:24.183Z,55.46
2017-07-24T04:32:51.758Z,55.11
2017-07-24T04:35:19.293Z,54.67
2017-07-24T04:37:46.881Z,54.62
2017-07-24T04:40:14.527Z,54.24
2017-07-24T04:42:42.079Z,53.90
2017-07-24T04:45:09.691Z,53.81
2017-07-24T04:47:37.286Z,53.33
2017-07-24T04:50:05.279Z,52.52
2017-07-24T04:52:32.909Z,52.96
2017-07-24T04:55:00.491Z,52.68
2017-07-24T04:57:28.304Z,52.34
2017-07-24T04:59:56.082Z,52.66
2017-07-24T05:02:23.784Z,52.86
2017-07-24T05:04:51.305Z,53.27
2017-07-24T05:07:18.925Z,54.70
2017-07-24T05:09:46.740Z,53.73
2017-07-24T05:12:14.335Z,53.37
2017-07-24T05:14:41.945Z,54.56
2017-07-24T05:17:09.638Z,54.50
2017-07-24T05:19:37.175Z,55.21
2017-07-24T05:22:04.811Z,55.50
2017-07-24T05:24:32.447Z,55.79
2017-07-24T05:27:00.022Z,54.69
2017-07-24T05:29:27.636Z,54.72
2017-07-24T05:31:55.288Z,53.69
2017-07-24T05:34:22.888Z,53.84
2017-07-24T05:36:50.633Z,53.00
2017-07-24T05:39:18.230Z,53.52
2017-07-24T05:41:45.830Z,51.70
2017-07-24T05:44:13.444Z,51.71
2017-07-24T05:46:41.321Z,52.10
2017-07-24T05:49:08.867Z,51.29
2017-07-24T05:51:36.457Z,50.50
2017-07-24T05:54:04.059Z,50.06
2017-07-24T05:56:31.652Z,50.32
2017-07-24T05:58:59.280Z,48.79
2017-07-24T06:01:26.878Z,49.64
2017-07-24T06:03:54.483Z,50.48
2017-07-24T06:06:22.057Z,50.82
2017-07-24T06:08:49.633Z,50.65
2017-07-24T06:11:17.222Z,51.22
2017-07-24T06:13:44.818Z,51.35
2017-07-24T06:16:12.398Z,52.12
2017-07-24T06:18:40.002Z,51.82
2017-07-24T06:21:07.794Z,51.81
2017-07-24T06:23:35.574Z,51.67
2017-07-24T06:26:03.977Z,50.87
2017-07-24T06:28:31.723Z,51.50
2017-07-24T06:30:59.330Z,50.04
2017-07-24T06:33:26.934Z,50.29
2017-07-24T06:35:54.512Z,50.51
2017-07-24T06:38:22.093Z,49.93
2017-07-24T06:40:49.649Z,50.71
2017-07-24T06:43:17.194Z,50.69
2017-07-24T06:45:44.976Z,50.67
2017-07-24T06:48:12.519Z,50.54
2017-07-24T06:50:40.106Z,48.43
2017-07-24T06:53:07.750Z,47.84
2017-07-24T06:55:35.352Z,47.05
2017-07-24T06:58:02.925Z,45.53
2017-07-24T07:00:30.638Z,44.11
2017-07-24T07:02:58.250Z,43.91
2017-07-24T07:05:26.026Z,45.24
2017-07-24T07:07:53.625Z,44.31
2017-07-24T07:10:21.394Z,45.42
2017-07-24T07:12:48.993Z,45.88
2017-07-24T07:15:16.772Z,46.10
2017-07-24T07:17:44.364Z,46.62
2017-07-24T07:20:12.144Z,46.94
2017-07-24T07:22:39.753Z,45.91
2017-07-24T07:25:07.567Z,45.28
2017-07-24T07:27:35.330Z,46.06
2017-07-24T07:30:02.968Z,45.32
2017-07-24T07:32:30.559Z,45.21
2017-07-24T07:34:58.172Z,44.48
2017-07-24T07:37:25.764Z,44.89
2017-07-24T07:39:53.387Z,44.36
2017-07-24T07:42:21.002Z,42.97
2017-07-24T07:44:48.586Z,42.83
2017-07-24T07:47:16.173Z,42.73
2017-07-24T07:49:43.735Z,42.66
2017-07-24T07:52:11.335Z,39.47
2017-07-24T07:54:38.996Z,40.34
2017-07-24T07:57:06.546Z,41.15
2017-07-24T07:59:34.187Z,39.91
2017-07-24T08:02:01.804Z,39.32
2017-07-24T08:04:29.415Z,40.83
2017-07-24T08:06:57.177Z,40.51
2017-07-24T08:09:24.782Z,37.90
2017-07-24T08:11:52.549Z,39.38
2017-07-24T08:14:20.341Z,39.74
2017-07-24T08:16:47.973Z,40.38
2017-07-24T08:19:15.552Z,39.08
2017-07-24T08:21:43.172Z,39.01
2017-07-24T08:24:10.770Z,38.26
2017-07-24T08:26:38.364Z,36.34
2017-07-24T08:29:05.915Z,36.53
2017-07-24T08:31:33.503Z,36.03
2017-07-24T08:34:01.098Z,35.52
2017-07-24T08:36:28.820Z,36.18
2017-07-24T08:38:57.319Z,36.47
2017-07-24T08:41:24.940Z,36.32
2017-07-24T08:43:52.544Z,34.11
2017-07-24T08:46:20.158Z,33.71
2017-07-24T08:48:48.460Z,33.65
2017-07-24T08:51:16.060Z,34.37
2017-07-24T08:53:43.671Z,34.48
2017-07-24T08:56:11.247Z,35.26
2017-07-24T08:58:38.888Z,34.00
2017-07-24T09:01:06.523Z,33.21
2017-07-24T09:03:34.121Z,33.99
2017-07-24T09:06:01.880Z,34.24
2017-07-24T09:08:29.585Z,34.15
2017-07-24T09:10:57.179Z,34.36
2017-07-24T09:13:24.757Z,34.60
2017-07-24T09:15:52.369Z,35.32
2017-07-24T09:18:20.813Z,34.78
2017-07-24T09:20:49.657Z,35.18
2017-07-24T09:23:17.285Z,34.84
2017-07-24T09:25:44.830Z,34.97
2017-07-24T09:28:12.428Z,35.51
2017-07-24T09:30:40.014Z,35.36
2017-07-24T09:33:07.559Z,34.75
2017-07-24T09:35:35.363Z,33.76
2017-07-24T09:38:02.999Z,34.21
2017-07-24T09:40:30.602Z,35.09
2017-07-24T09:42:58.353Z,35.41
2017-07-24T09:45:25.958Z,35.19
2017-07-24T09:47:54.413Z,34.71
2017-07-24T09:50:21.962Z,34.43
2017-07-24T09:52:49.567Z,33.46
2017-07-24T09:55:17.197Z,34.16
2017-07-24T09:57:44.949Z,33.68
2017-07-24T10:00:12.831Z,33.55
2017-07-24T10:02:40.393Z,32.93
2017-07-24T10:05:08.064Z,33.76
2017-07-24T10:07:35.691Z,33.53
2017-07-24T10:10:03.310Z,33.43
2017-07-24T10:12:31.803Z,30.20
2017-07-24T10:15:00.331Z,29.82
2017-07-24T10:17:28.083Z,29.47
2017-07-24T10:19:55.681Z,29.52
2017-07-24T10:22:23.461Z,29.07
2017-07-24T10:24:51.179Z,28.47
2017-07-24T10:27:18.770Z,29.19
2017-07-24T10:29:46.431Z,28.94
2017-07-24T10:32:14.101Z,28.07
2017-07-24T10:34:45.898Z,28.03
2017-07-24T10:37:13.496Z,28.85
2017-07-24T10:39:41.554Z,28.42
2017-07-24T10:42:09.110Z,28.37
2017-07-24T10:44:36.681Z,27.66
2017-07-24T10:47:04.397Z,28.12
2017-07-24T10:49:32.221Z,28.85
2017-07-24T10:52:00.056Z,28.96
2017-07-24T10:54:28.210Z,28.90
2017-07-24T10:56:55.860Z,28.08
2017-07-24T10:59:23.506Z,28.19
2017-07-24T11:01:51.068Z,27.99
2017-07-24T11:04:18.599Z,28.31
2017-07-24T11:06:46.189Z,29.20
2017-07-24T11:09:13.867Z,29.55
2017-07-24T11:11:41.647Z,29.29
2017-07-24T11:14:09.437Z,29.85
2017-07-24T11:16:37.046Z,30.28
2017-07-24T11:19:05.115Z,30.11
2017-07-24T11:21:32.638Z,29.92
2017-07-24T11:24:00.220Z,30.38
2017-07-24T11:26:27.815Z,30.17
2017-07-24T11:28:55.380Z,30.74
2017-07-24T11:31:23.095Z,30.70
2017-07-24T11:33:50.911Z,31.20
2017-07-24T11:36:18.474Z,31.07
2017-07-24T11:38:46.095Z,31.16
2017-07-24T11:41:13.881Z,30.19
2017-07-24T11:43:41.583Z,30.94
2017-07-24T11:46:09.245Z,31.64
2017-07-24T11:48:37.168Z,31.78
2017-07-24T11:51:04.708Z,32.02
2017-07-24T11:53:32.369Z,32.60
2017-07-24T11:55:59.949Z,32.45
2017-07-24T11:58:27.567Z,32.28
2017-07-24T12:00:55.236Z,32.27
2017-07-24T12:03:22.813Z,32.42
2017-07-24T12:05:50.450Z,32.49
2017-07-24T12:08:18.043Z,33.31
2017-07-24T12:10:45.703Z,33.07
2017-07-24T12:13:13.527Z,32.97
2017-07-24T12:15:41.934Z,32.30
2017-07-24T12:18:09.489Z,32.50
2017-07-24T12:20:37.026Z,32.35
2017-07-24T12:23:04.587Z,32.00
2017-07-24T12:25:32.209Z,32.81
2017-07-24T12:27:59.885Z,32.64
2017-07-24T12:30:28.823Z,32.42
2017-07-24T12:32:57.041Z,33.55
2017-07-24T12:35:24.606Z,33.26
2017-07-24T12:37:52.249Z,32.99
2017-07-24T12:40:20.594Z,32.84
2017-07-24T12:42:48.170Z,33.39
2017-07-24T12:45:15.859Z,33.08
2017-07-24T12:47:43.489Z,36.56
2017-07-24T12:50:11.034Z,36.80
2017-07-24T12:52:38.643Z,37.55
2017-07-24T12:55:06.459Z,37.95
2017-07-24T12:57:34.074Z,37.90
2017-07-24T13:00:01.678Z,38.32
2017-07-24T13:02:29.284Z,38.92
2017-07-24T13:04:56.891Z,39.32
2017-07-24T13:07:24.518Z,39.55
2017-07-24T13:09:52.099Z,39.48
2017-07-24T13:12:19.776Z,39.54
2017-07-24T13:14:47.339Z,39.88
2017-07-24T13:17:14.935Z,40.07
2017-07-24T13:19:42.691Z,40.14
2017-07-24T13:22:10.313Z,40.32
2017-07-24T13:24:37.917Z,40.95
2017-07-24T13:27:05.664Z,40.19
2017-07-24T13:29:33.260Z,39.93
2017-07-24T13:32:00.983Z,40.10
2017-07-24T13:34:28.548Z,39.57
2017-07-24T13:36:57.010Z,39.29
2017-07-24T13:39:24.650Z,38.95
2017-07-24T13:41:52.227Z,38.43
2017-07-24T13:44:19.795Z,38.34
2017-07-24T13:46:47.445Z,38.28
2017-07-24T13:49:15.116Z,38.03
2017-07-24T13:51:42.718Z,37.80
2017-07-24T13:54:10.505Z,37.64
2017-07-24T13:56:38.071Z,37.21
2017-07-24T13:59:05.663Z,37.44
2017-07-24T14:01:33.249Z,37.04
2017-07-24T14:04:00.847Z,36.58
2017-07-24T14:06:28.649Z,36.93
2017-07-24T14:08:56.319Z,36.52
2017-07-24T14:11:23.892Z,37.02
2017-07-24T14:13:51.467Z,36.35
2017-07-24T14:16:19.086Z,35.57
2017-07-24T14:18:46.657Z,35.94
2017-07-24T14:21:14.265Z,36.19
2017-07-24T14:23:41.842Z,35.63
2017-07-24T14:26:10.146Z,35.78
2017-07-24T14:28:37.795Z,35.05
2017-07-24T14:31:05.420Z,35.02
2017-07-24T14:33:32.972Z,35.00
2017-07-24T14:36:00.547Z,35.14
2017-07-24T14:38:28.227Z,34.43
2017-07-24T14:40:55.824Z,34.64
2017-07-24T14:43:23.973Z,34.99
2017-07-24T14:45:51.811Z,34.95
2017-07-24T14:48:19.378Z,35.60
2017-07-24T14:50:47.012Z,35.30
2017-07-24T14:53:15.101Z,35.66
2017-07-24T14:55:42.911Z,35.96
2017-07-24T14:58:10.534Z,36.28
2017-07-24T15:00:38.144Z,36.14
2017-07-24T15:03:06.546Z,36.05
2017-07-24T15:05:34.480Z,35.96
2017-07-24T15:08:02.078Z,35.61
2017-07-24T15:10:29.630Z,35.75
2017-07-24T15:12:57.238Z,35.76
2017-07-24T15:15:24.826Z,35.72
2017-07-24T15:17:52.418Z,35.84
2017-07-24T15:20:20.839Z,35.79
2017-07-24T15:22:48.414Z,35.93
2017-07-24T15:25:15.980Z,35.95
2017-07-24T15:27:43.543Z,36.25
2017-07-24T15:30:11.943Z,36.42
2017-07-24T15:32:39.530Z,36.58
2017-07-24T15:35:07.110Z,36.16
2017-07-24T15:37:35.490Z,36.03
2017-07-24T15:40:03.469Z,36.33
2017-07-24T15:42:31.946Z,36.24
2017-07-24T15:44:59.609Z,36.66
2017-07-24T15:47:27.146Z,35.70
2017-07-24T15:49:54.714Z,35.28
2017-07-24T15:52:22.315Z,35.61
2017-07-24T15:54:49.858Z,35.59
2017-07-24T15:57:17.429Z,35.55
2017-07-24T15:59:45.048Z,35.31
2017-07-24T16:02:12.710Z,35.41
2017-07-24T16:04:41.350Z,35.47
2017-07-24T16:07:09.305Z,35.29
2017-07-24T16:09:36.894Z,35.10
2017-07-24T16:12:04.721Z,35.41
2017-07-24T16:14:32.484Z,35.55
2017-07-24T16:17:00.096Z,35.17
2017-07-24T16:19:27.923Z,35.69
2017-07-24T16:21:55.506Z,35.40
2017-07-24T16:24:23.120Z,35.44
2017-07-24T16:26:50.718Z,35.20
2017-07-24T16:29:18.330Z,35.15
2017-07-24T16:31:45.932Z,34.90
2017-07-24T16:34:13.529Z,34.18
2017-07-24T16:36:41.080Z,34.73
2017-07-24T16:39:08.730Z,33.88
2017-07-24T16:41:36.302Z,34.00
2017-07-24T16:44:03.938Z,34.43
2017-07-24T16:46:32.278Z,34.22
2017-07-24T16:48:59.898Z,34.77
2017-07-24T16:51:27.531Z,34.76
2017-07-24T16:53:55.168Z,34.91
2017-07-24T16:56:22.948Z,35.20
2017-07-24T16:58:50.776Z,35.30
2017-07-24T17:01:18.715Z,35.71
2017-07-24T17:03:46.267Z,36.27
2017-07-24T17:06:13.798Z,36.30
2017-07-24T17:08:41.389Z,36.43
2017-07-24T17:11:08.960Z,36.60
2017-07-24T17:13:36.555Z,36.66
2017-07-24T17:16:04.154Z,37.32
2017-07-24T17:18:31.902Z,37.85
2017-07-24T17:21:00.253Z,38.21
2017-07-24T17:23:29.612Z,38.72
2017-07-24T17:25:59.592Z,38.94
2017-07-24T17:28:28.777Z,38.86
2017-07-24T17:31:02.353Z,38.90
2017-07-24T17:33:36.239Z,39.25
2017-07-24T17:36:06.695Z,39.29
2017-07-24T17:38:35.102Z,39.48
2017-07-24T17:41:03.201Z,39.50
2017-07-24T17:43:30.817Z,39.77
2017-07-24T17:48:37.507Z,40.24
2017-07-24T17:51:05.381Z,40.47
2017-07-24T17:53:33.597Z,40.38
2017-07-24T17:56:01.201Z,40.50
2017-07-24T17:58:29.686Z,40.66
2017-07-24T18:00:57.469Z,40.87
2017-07-24T18:03:26.824Z,40.96
2017-07-24T18:05:55.919Z,41.28
2017-07-24T18:08:24.820Z,41.25
2017-07-24T18:10:52.398Z,41.51
2017-07-24T18:13:20.905Z,41.35
2017-07-24T18:15:48.577Z,41.56
2017-07-24T18:18:19.147Z,42.15
2017-07-24T18:20:48.158Z,41.98
2017-07-24T18:23:15.812Z,42.03
2017-07-24T18:25:44.126Z,42.46
2017-07-24T18:28:12.250Z,42.49
2017-07-24T18:30:39.864Z,42.81
2017-07-24T18:33:09.632Z,42.58
2017-07-24T18:35:39.366Z,42.03
2017-07-24T18:38:07.322Z,41.82
2017-07-24T18:40:37.329Z,42.16
2017-07-24T18:43:05.924Z,42.18
2017-07-24T18:45:38.023Z,41.87
2017-07-24T18:48:07.015Z,41.69
2017-07-24T18:50:36.199Z,41.31
2017-07-24T18:53:05.127Z,41.75
2017-07-24T18:55:35.518Z,42.06
2017-07-24T18:58:04.358Z,42.46
2017-07-24T19:00:32.357Z,42.40
2017-07-24T19:03:03.768Z,42.61
2017-07-24T19:05:32.953Z,42.96
2017-07-24T19:08:00.702Z,43.66
2017-07-24T19:10:29.307Z,43.58
2017-07-24T19:12:57.710Z,43.69
2017-07-24T19:15:25.600Z,43.92
2017-07-24T19:17:55.024Z,44.51
2017-07-24T19:20:49.979Z,44.46
2017-07-24T19:23:19.710Z,45.23
2017-07-24T19:25:56.222Z,45.49
2017-07-24T19:31:29.565Z,45.93
2017-07-24T19:34:02.265Z,45.89
2017-07-24T19:36:31.265Z,46.11
2017-07-24T19:39:01.115Z,46.00
2017-07-24T19:41:31.049Z,46.05
2017-07-24T19:44:00.192Z,46.14
2017-07-24T19:46:44.401Z,45.96
2017-07-24T19:49:15.480Z,46.16
2017-07-24T19:51:44.137Z,46.71
2017-07-24T19:54:13.338Z,46.64
2017-07-24T19:56:42.047Z,46.71
2017-07-24T19:59:09.907Z,46.81
2017-07-24T20:01:37.716Z,46.71
2017-07-24T20:04:06.195Z,46.50
2017-07-24T20:06:35.068Z,47.21
2017-07-24T20:09:07.097Z,48.61
2017-07-24T20:11:40.045Z,48.30
2017-07-24T20:14:11.298Z,48.63
2017-07-24T20:19:59.643Z,50.08
2017-07-24T20:22:27.590Z,49.89
2017-07-24T20:24:55.233Z,49.71
2017-07-24T20:27:22.879Z,49.90
2017-07-24T20:29:50.414Z,49.67
2017-07-24T20:32:18.017Z,49.46
2017-07-24T20:34:45.780Z,49.69
2017-07-24T20:37:13.460Z,49.92
2017-07-24T20:39:41.318Z,50.60
2017-07-24T20:42:09.035Z,50.44
2017-07-24T20:44:36.628Z,51.28
2017-07-24T20:47:04.422Z,51.22
2017-07-24T20:49:32.044Z,51.39
2017-07-24T20:52:00.576Z,51.04
2017-07-24T20:54:28.243Z,51.13
2017-07-24T20:56:55.917Z,51.19
2017-07-24T20:59:23.540Z,51.04
2017-07-24T21:01:51.190Z,50.85
2017-07-24T21:04:18.889Z,50.92
2017-07-24T21:06:46.974Z,51.50
2017-07-24T21:09:15.232Z,51.29
2017-07-24T21:11:46.334Z,51.41
2017-07-24T21:14:17.140Z,51.44
2017-07-24T21:16:45.277Z,51.34
2017-07-24T21:19:13.189Z,51.33
2017-07-24T21:21:40.887Z,51.35
2017-07-24T21:24:09.204Z,51.07
2017-07-24T21:26:36.812Z,50.92
2017-07-24T21:29:04.461Z,50.91
2017-07-24T21:31:33.224Z,50.88
2017-07-24T21:34:00.898Z,49.86
2017-07-24T21:36:28.538Z,49.96
2017-07-24T21:38:56.157Z,49.35
2017-07-24T21:41:23.930Z,49.54
2017-07-24T21:43:51.557Z,50.64
2017-07-24T21:46:21.049Z,50.93
2017-07-24T21:48:48.678Z,51.68
2017-07-24T21:51:17.305Z,50.88
2017-07-24T21:53:44.950Z,49.96
2017-07-24T21:56:12.556Z,50.77
2017-07-24T21:58:40.123Z,50.93
2017-07-24T22:01:07.762Z,50.76
2017-07-24T22:03:35.366Z,50.65
2017-07-24T22:06:02.957Z,51.18
2017-07-24T22:08:31.230Z,51.21
2017-07-24T22:10:58.907Z,51.83
2017-07-24T22:13:26.510Z,50.42
2017-07-24T22:15:54.440Z,50.13
2017-07-24T22:18:22.050Z,50.39
2017-07-24T22:20:49.660Z,50.66
2017-07-24T22:23:17.327Z,49.98
2017-07-24T22:25:44.923Z,49.21
2017-07-24T22:28:12.547Z,49.91
2017-07-24T22:30:40.197Z,49.93
2017-07-24T22:33:07.794Z,50.33
2017-07-24T22:35:35.492Z,50.48
2017-07-24T22:38:03.206Z,50.67
2017-07-24T22:40:30.835Z,50.22
2017-07-24T22:42:58.450Z,49.95
2017-07-24T22:45:26.134Z,50.33
2017-07-24T22:47:53.751Z,50.81
2017-07-24T22:50:21.323Z,51.06
2017-07-24T22:52:49.011Z,51.46
2017-07-24T22:55:17.991Z,52.01
2017-07-24T22:57:45.734Z,52.72
2017-07-24T23:00:13.451Z,51.47
2017-07-24T23:02:41.826Z,51.24
2017-07-24T23:05:09.494Z,51.53
2017-07-24T23:07:37.168Z,51.61
2017-07-24T23:10:04.930Z,50.99
2017-07-24T23:12:32.589Z,50.88
2017-07-24T23:15:00.217Z,51.16
2017-07-24T23:17:27.809Z,52.53
2017-07-24T23:19:56.203Z,52.40
2017-07-24T23:22:24.249Z,52.03
2017-07-24T23:24:51.864Z,51.95
2017-07-24T23:27:22.243Z,52.25
2017-07-24T23:29:49.900Z,52.66
2017-07-24T23:32:17.499Z,52.73
2017-07-24T23:34:45.153Z,52.72
2017-07-24T23:37:12.730Z,53.65
2017-07-24T23:39:41.133Z,53.81
2017-07-24T23:42:08.855Z,53.33
2017-07-24T23:44:36.513Z,52.96
2017-07-24T23:47:04.160Z,52.94
2017-07-24T23:49:31.872Z,52.89
2017-07-24T23:51:59.489Z,52.84
2017-07-24T23:54:27.383Z,52.74
2017-07-24T23:56:54.993Z,52.74
2017-07-24T23:59:22.585Z,52.44
